Time;durP1;ratioP1;P1;durP2;ratioP2;P2;SDS_P1;SDS_P2;PMS_P1;PMS_P2;Temp;Humidity;BMP_temperature;BMP_pressure;BME280_temperature;BME280_humidity;BME280_pressure;Samples;Min_cycle;Max_cycle;Signal;HPM_P1;HPM_P2
2023/04/28 00:02:06;;;;;;;12.18;6.55;;;6.00;99.90;;;;;;5002262;28;20074;-57
2023/04/28 00:04:32;;;;;;;12.95;6.95;;;5.90;99.90;;;;;;5019190;28;20100;-58
2023/04/28 00:06:57;;;;;;;11.27;6.53;;;6.00;99.90;;;;;;5001615;28;20101;-57
2023/04/28 00:09:23;;;;;;;12.15;6.93;;;5.90;99.90;;;;;;5019411;28;20037;-57
2023/04/28 00:11:49;;;;;;;13.55;6.47;;;5.90;99.90;;;;;;5018882;28;20049;-57
2023/04/28 00:14:14;;;;;;;12.02;7.05;;;6.00;99.90;;;;;;5001752;28;20049;-57
2023/04/28 00:16:40;;;;;;;13.70;7.22;;;5.90;99.90;;;;;;5018791;28;20073;-58
2023/04/28 00:19:06;;;;;;;12.70;6.75;;;5.90;99.90;;;;;;5019524;28;20064;-57
2023/04/28 00:21:32;;;;;;;10.90;7.28;;;5.90;99.90;;;;;;5018450;28;20436;-58
2023/04/28 00:23:57;;;;;;;12.63;7.00;;;5.80;99.90;;;;;;5019073;28;20052;-58
2023/04/28 00:26:23;;;;;;;10.95;6.95;;;5.80;99.90;;;;;;5019141;28;20041;-58
2023/04/28 00:28:49;;;;;;;12.60;7.13;;;5.80;99.90;;;;;;5018798;28;20097;-58
2023/04/28 00:31:15;;;;;;;12.05;7.13;;;5.90;99.90;;;;;;5019391;28;20480;-58
2023/04/28 00:33:42;;;;;;;11.55;6.70;;;5.80;99.90;;;;;;5018606;28;20046;-60
2023/04/28 00:36:08;;;;;;;11.15;7.20;;;5.80;99.90;;;;;;5018529;28;20058;-58
2023/04/28 00:38:34;;;;;;;13.27;7.15;;;5.70;99.90;;;;;;5018243;28;20050;-58
2023/04/28 00:41:00;;;;;;;11.90;7.20;;;5.70;99.90;;;;;;5018959;28;20045;-60
2023/04/28 00:43:26;;;;;;;13.00;7.20;;;5.70;99.90;;;;;;5018593;28;20049;-58
2023/04/28 00:45:52;;;;;;;11.15;6.97;;;5.70;99.90;;;;;;5018385;28;20053;-58
2023/04/28 00:48:18;;;;;;;11.50;6.85;;;5.70;99.90;;;;;;5019011;28;20070;-57
2023/04/28 00:50:45;;;;;;;14.00;7.10;;;5.70;99.90;;;;;;5017780;28;20061;-57
2023/04/28 00:53:11;;;;;;;12.38;7.43;;;5.60;99.90;;;;;;5018925;28;20050;-57
2023/04/28 00:55:38;;;;;;;10.38;6.57;;;5.60;99.90;;;;;;5018035;28;20046;-57
2023/04/28 00:58:08;;;;;;;13.13;7.35;;;5.60;99.90;;;;;;5018613;28;20077;-57
2023/04/28 01:00:34;;;;;;;12.23;7.38;;;5.50;99.90;;;;;;5018364;28;20038;-58
2023/04/28 01:03:00;;;;;;;14.13;7.55;;;5.50;99.90;;;;;;5018262;28;20225;-57
2023/04/28 01:05:26;;;;;;;13.32;6.93;;;5.60;99.90;;;;;;5018726;28;20464;-57
2023/04/28 01:07:52;;;;;;;16.65;7.47;;;5.60;99.90;;;;;;5017999;28;20057;-57
2023/04/28 01:10:17;;;;;;;12.13;7.35;;;5.60;99.90;;;;;;5018364;28;20157;-57
2023/04/28 01:12:43;;;;;;;10.95;6.68;;;5.60;99.90;;;;;;5017828;28;20065;-58
2023/04/28 01:15:15;;;;;;;14.02;7.82;;;5.60;99.90;;;;;;5018535;28;20089;-57
2023/04/28 01:17:41;;;;;;;12.23;7.28;;;5.60;99.90;;;;;;5010015;28;20052;-58
2023/04/28 01:20:08;;;;;;;12.88;7.28;;;5.60;99.90;;;;;;5018052;28;20042;-57
2023/04/28 01:22:33;;;;;;;11.98;6.95;;;5.60;99.90;;;;;;5018414;28;20062;-57
2023/04/28 01:24:59;;;;;;;12.55;7.43;;;5.50;99.90;;;;;;5017878;28;20042;-57
2023/04/28 01:27:25;;;;;;;12.63;6.85;;;5.50;99.90;;;;;;5018484;28;20061;-57
2023/04/28 01:29:51;;;;;;;12.63;7.40;;;5.60;99.90;;;;;;5017838;28;20046;-58
2023/04/28 01:32:16;;;;;;;14.25;7.50;;;5.50;99.90;;;;;;5000297;28;20038;-56
2023/04/28 01:34:42;;;;;;;13.18;7.13;;;5.50;99.90;;;;;;5017788;28;20097;-58
2023/04/28 01:37:08;;;;;;;12.80;7.00;;;5.50;99.90;;;;;;5000302;28;20042;-59
2023/04/28 01:39:34;;;;;;;11.82;6.85;;;5.60;99.90;;;;;;5017920;28;20092;-57
2023/04/28 01:42:01;;;;;;;13.52;7.38;;;5.60;99.90;;;;;;5020678;28;20058;-58
2023/04/28 01:44:27;;;;;;;12.48;7.75;;;5.50;99.90;;;;;;5022499;28;20068;-57
2023/04/28 01:46:52;;;;;;;12.13;7.53;;;5.60;99.90;;;;;;5021239;28;20522;-58
2023/04/28 01:49:18;;;;;;;13.30;7.00;;;5.50;99.90;;;;;;5022026;28;20289;-57
2023/04/28 01:51:44;;;;;;;12.98;7.75;;;5.50;99.90;;;;;;5021683;28;20045;-57
2023/04/28 01:54:09;;;;;;;12.35;7.15;;;5.50;99.90;;;;;;5021903;28;20058;-58
2023/04/28 01:56:35;;;;;;;12.00;7.38;;;5.60;99.90;;;;;;5021852;28;20049;-57
2023/04/28 01:59:01;;;;;;;12.07;7.43;;;5.60;99.90;;;;;;5021391;28;20042;-57
2023/04/28 02:01:26;;;;;;;11.13;7.53;;;5.60;99.90;;;;;;5021979;28;20044;-58
2023/04/28 02:03:53;;;;;;;13.60;7.65;;;5.50;99.90;;;;;;5021526;28;20078;-58
2023/04/28 02:06:19;;;;;;;11.80;6.95;;;5.50;99.90;;;;;;5022030;28;20054;-58
2023/04/28 02:08:45;;;;;;;13.20;8.07;;;5.60;99.90;;;;;;5020750;28;20382;-59
2023/04/28 02:11:11;;;;;;;13.68;7.38;;;5.50;99.90;;;;;;5021566;28;20123;-58
2023/04/28 02:13:36;;;;;;;13.05;7.28;;;5.60;99.90;;;;;;5021684;28;20049;-58
2023/04/28 02:16:02;;;;;;;12.80;7.65;;;5.60;99.90;;;;;;5020885;28;20086;-57
2023/04/28 02:18:28;;;;;;;12.10;7.25;;;5.50;99.90;;;;;;5021819;28;20038;-57
2023/04/28 02:20:53;;;;;;;12.35;7.63;;;5.50;99.90;;;;;;5021163;28;20046;-58
2023/04/28 02:23:19;;;;;;;15.80;8.60;;;5.60;99.90;;;;;;5021207;28;20037;-58
2023/04/28 02:25:45;;;;;;;16.42;8.02;;;5.50;99.90;;;;;;5020983;28;20052;-57
2023/04/28 02:28:10;;;;;;;13.52;7.65;;;5.60;99.90;;;;;;5021421;28;20045;-58
2023/04/28 02:30:36;;;;;;;14.15;8.00;;;5.60;99.90;;;;;;5021083;28;20064;-58
2023/04/28 02:33:02;;;;;;;13.55;7.90;;;5.60;99.90;;;;;;5003338;28;20102;-57
2023/04/28 02:35:27;;;;;;;18.17;8.00;;;5.60;99.90;;;;;;5021274;28;20077;-57
2023/04/28 02:37:53;;;;;;;13.13;8.10;;;5.60;99.90;;;;;;5020626;28;20105;-58
2023/04/28 02:40:19;;;;;;;15.05;8.23;;;5.50;99.90;;;;;;5021116;28;20056;-58
2023/04/28 02:42:44;;;;;;;16.70;9.20;;;5.60;99.90;;;;;;5020392;28;20103;-58
2023/04/28 02:45:10;;;;;;;15.43;8.65;;;5.50;99.90;;;;;;5020764;28;20057;-58
2023/04/28 02:47:36;;;;;;;14.63;8.18;;;5.60;99.90;;;;;;5020554;28;20476;-57
2023/04/28 02:50:02;;;;;;;17.23;8.90;;;5.60;99.90;;;;;;5020559;28;20049;-57
2023/04/28 02:52:27;;;;;;;14.25;8.75;;;5.50;99.90;;;;;;5020984;28;20081;-58
2023/04/28 02:54:56;;;;;;;17.00;9.63;;;5.60;99.90;;;;;;5020425;28;20045;-57
2023/04/28 02:57:22;;;;;;;16.77;9.95;;;5.70;99.90;;;;;;5020904;28;20049;-58
2023/04/28 02:59:47;;;;;;;19.80;9.52;;;5.60;99.90;;;;;;5002540;28;20106;-57
2023/04/28 03:02:13;;;;;;;16.88;9.15;;;5.60;99.90;;;;;;5020939;28;20045;-57
2023/04/28 03:04:39;;;;;;;16.27;9.93;;;5.60;99.90;;;;;;5020287;28;20046;-57
2023/04/28 03:07:05;;;;;;;16.63;9.88;;;5.60;99.90;;;;;;5020551;28;20046;-58
2023/04/28 03:09:31;;;;;;;20.95;10.98;;;5.70;99.90;;;;;;5020748;28;20034;-57
2023/04/28 03:11:56;;;;;;;19.85;10.98;;;5.80;99.90;;;;;;5020113;28;20497;-57
2023/04/28 03:14:22;;;;;;;19.00;11.40;;;5.70;99.90;;;;;;5000523;28;20405;-57
2023/04/28 03:16:48;;;;;;;17.10;9.85;;;5.80;99.90;;;;;;4998877;28;20050;-58
2023/04/28 03:19:14;;;;;;;16.23;10.40;;;5.70;99.90;;;;;;5000989;28;20064;-57
2023/04/28 03:21:39;;;;;;;18.60;10.55;;;5.70;99.90;;;;;;5000225;28;20049;-58
2023/04/28 03:24:05;;;;;;;19.08;10.65;;;5.80;99.90;;;;;;5000297;28;20413;-58
2023/04/28 03:26:31;;;;;;;20.23;11.18;;;5.80;99.90;;;;;;5000817;28;20038;-57
2023/04/28 03:28:57;;;;;;;17.33;10.70;;;5.80;99.90;;;;;;5000105;28;20116;-58
2023/04/28 03:31:23;;;;;;;18.67;11.25;;;5.70;99.90;;;;;;5001121;28;20042;-58
2023/04/28 03:33:48;;;;;;;20.05;10.60;;;5.70;99.90;;;;;;5000045;28;20046;-58
2023/04/28 03:36:14;;;;;;;20.45;11.15;;;5.80;99.90;;;;;;5000724;28;20401;-57
2023/04/28 03:38:40;;;;;;;20.00;10.95;;;5.70;99.90;;;;;;4999644;28;20044;-58
2023/04/28 03:41:06;;;;;;;17.33;10.80;;;5.80;99.90;;;;;;5000505;28;20046;-57
2023/04/28 03:43:34;;;;;;;17.60;10.82;;;5.70;99.90;;;;;;5000250;28;20049;-58
2023/04/28 03:46:00;;;;;;;18.55;10.30;;;5.70;99.90;;;;;;4999839;28;20051;-58
2023/04/28 03:48:26;;;;;;;16.98;9.82;;;5.70;99.90;;;;;;5016863;28;20038;-58
2023/04/28 03:50:52;;;;;;;22.73;10.77;;;5.70;99.90;;;;;;5019140;28;20206;-58
2023/04/28 03:53:17;;;;;;;20.27;10.98;;;5.70;99.90;;;;;;5019906;28;20572;-57
2023/04/28 03:55:43;;;;;;;22.30;11.98;;;5.70;99.90;;;;;;5019131;28;20049;-58
2023/04/28 03:58:09;;;;;;;23.75;12.85;;;5.70;99.90;;;;;;5019341;28;20395;-57
2023/04/28 04:00:35;;;;;;;20.63;11.38;;;5.80;99.90;;;;;;5019507;28;20088;-58
2023/04/28 04:03:00;;;;;;;21.88;11.73;;;5.80;99.90;;;;;;5019052;28;20053;-58
2023/04/28 04:05:26;;;;;;;22.88;12.02;;;5.70;99.90;;;;;;5019628;28;20049;-56
2023/04/28 04:07:52;;;;;;;21.58;11.13;;;5.90;99.90;;;;;;5001615;28;20041;-58
2023/04/28 04:10:18;;;;;;;20.73;11.55;;;5.80;99.90;;;;;;5019383;28;20084;-57
2023/04/28 04:12:43;;;;;;;21.00;12.32;;;5.90;99.90;;;;;;5018770;28;20057;-57
2023/04/28 04:15:09;;;;;;;21.73;11.70;;;5.90;99.90;;;;;;5019151;28;20142;-57
2023/04/28 04:17:35;;;;;;;21.45;12.05;;;5.90;99.90;;;;;;5001643;28;20042;-57
2023/04/28 04:20:01;;;;;;;23.42;12.90;;;5.90;99.90;;;;;;5018932;28;20046;-57
2023/04/28 04:22:26;;;;;;;23.58;13.13;;;5.90;99.90;;;;;;5019498;28;20097;-57
2023/04/28 04:24:52;;;;;;;22.35;12.80;;;6.00;99.90;;;;;;5018680;28;20042;-57
2023/04/28 04:27:18;;;;;;;22.73;12.13;;;5.90;99.90;;;;;;5019100;28;20073;-58
2023/04/28 04:29:43;;;;;;;22.17;12.35;;;6.00;99.90;;;;;;5018654;28;20030;-58
2023/04/28 04:32:09;;;;;;;23.65;12.60;;;6.00;99.90;;;;;;5019173;28;20038;-58
2023/04/28 04:34:35;;;;;;;24.33;13.82;;;6.00;99.90;;;;;;5018646;28;20037;-58
2023/04/28 04:37:01;;;;;;;24.27;13.07;;;6.00;99.90;;;;;;5018820;28;20103;-57
2023/04/28 04:39:27;;;;;;;24.75;12.88;;;6.00;99.90;;;;;;5018808;28;20038;-57
2023/04/28 04:41:52;;;;;;;21.77;12.85;;;6.00;99.90;;;;;;5018327;28;20052;-56
2023/04/28 04:44:18;;;;;;;20.38;11.98;;;6.10;99.90;;;;;;5018949;28;20108;-57
2023/04/28 04:46:45;;;;;;;21.92;11.98;;;6.00;99.90;;;;;;5018283;28;20041;-57
2023/04/28 04:49:10;;;;;;;23.40;11.82;;;6.10;99.90;;;;;;5018535;28;20050;-57
2023/04/28 04:51:36;;;;;;;21.55;12.45;;;6.10;99.90;;;;;;5018317;28;20060;-58
2023/04/28 04:54:02;;;;;;;21.95;12.02;;;6.20;99.90;;;;;;5018522;28;20057;-57
2023/04/28 04:56:28;;;;;;;20.90;12.27;;;6.30;99.90;;;;;;5018494;28;20053;-57
2023/04/28 04:58:54;;;;;;;20.52;11.82;;;6.30;99.90;;;;;;5018342;28;20038;-57
2023/04/28 05:01:19;;;;;;;22.23;10.52;;;6.20;99.90;;;;;;5018790;28;20050;-57
2023/04/28 05:03:45;;;;;;;20.75;12.00;;;6.30;99.90;;;;;;5018152;28;20045;-58
2023/04/28 05:06:10;;;;;;;20.75;11.52;;;6.30;99.90;;;;;;5018705;28;20048;-57
2023/04/28 05:08:36;;;;;;;19.95;11.40;;;6.20;99.90;;;;;;5017849;28;20038;-57
2023/04/28 05:11:02;;;;;;;20.58;10.85;;;6.40;99.90;;;;;;5000610;28;20077;-57
2023/04/28 05:13:27;;;;;;;21.30;10.82;;;6.30;99.90;;;;;;5018415;28;20038;-57
2023/04/28 05:15:53;;;;;;;21.55;10.45;;;6.30;99.90;;;;;;5016919;28;20045;-57
2023/04/28 05:18:19;;;;;;;16.60;10.15;;;6.40;99.90;;;;;;5018707;28;20042;-57
2023/04/28 05:20:44;;;;;;;20.25;10.35;;;6.40;99.90;;;;;;5017848;28;20046;-57
2023/04/28 05:23:10;;;;;;;21.95;11.07;;;6.40;99.90;;;;;;5018576;28;20038;-57
2023/04/28 05:25:36;;;;;;;19.88;10.95;;;6.40;99.90;;;;;;5017420;28;20065;-58
2023/04/28 05:28:07;;;;;;;16.65;9.52;;;6.40;99.90;;;;;;5017742;28;20041;-56
2023/04/28 05:30:33;;;;;;;18.77;10.37;;;6.40;99.90;;;;;;5018204;28;20050;-57
2023/04/28 05:32:59;;;;;;;19.17;10.77;;;6.50;99.90;;;;;;5018043;28;20045;-57
2023/04/28 05:35:25;;;;;;;17.85;10.80;;;6.40;99.90;;;;;;5018396;28;20069;-57
2023/04/28 05:37:51;;;;;;;17.83;10.02;;;6.40;99.90;;;;;;5017856;28;20040;-58
2023/04/28 05:40:17;;;;;;;19.63;10.52;;;6.50;99.90;;;;;;5017736;28;20085;-57
2023/04/28 05:42:42;;;;;;;16.45;9.75;;;6.50;99.90;;;;;;5017674;28;20057;-57
2023/04/28 05:45:09;;;;;;;17.27;9.65;;;6.50;99.90;;;;;;5017987;28;20085;-57
2023/04/28 05:47:35;;;;;;;19.35;10.57;;;6.50;99.90;;;;;;5017971;28;20057;-57
2023/04/28 05:50:00;;;;;;;16.65;9.52;;;6.50;99.90;;;;;;5017249;28;20506;-57
2023/04/28 05:52:27;;;;;;;16.77;9.55;;;6.50;99.90;;;;;;5018139;28;20042;-57
2023/04/28 05:54:52;;;;;;;17.38;10.38;;;6.60;99.90;;;;;;5017337;28;20046;-57
2023/04/28 05:57:18;;;;;;;17.67;10.00;;;6.60;99.90;;;;;;5018249;28;20140;-57
2023/04/28 05:59:44;;;;;;;17.80;9.15;;;6.70;99.90;;;;;;5017632;28;20049;-57
2023/04/28 06:02:10;;;;;;;20.67;9.65;;;6.70;99.90;;;;;;5017911;28;20077;-57
2023/04/28 06:04:37;;;;;;;18.65;10.18;;;6.70;99.90;;;;;;5017672;28;20046;-57
2023/04/28 06:07:02;;;;;;;16.33;9.73;;;6.70;99.90;;;;;;5017714;28;20038;-57
2023/04/28 06:09:28;;;;;;;17.00;9.73;;;6.70;99.90;;;;;;5017741;28;20088;-57
2023/04/28 06:11:54;;;;;;;16.17;9.40;;;6.90;99.90;;;;;;5017427;28;20042;-57
2023/04/28 06:14:22;;;;;;;17.83;9.95;;;6.80;99.90;;;;;;4999621;28;20410;-57
2023/04/28 06:16:47;;;;;;;14.45;9.10;;;6.90;99.90;;;;;;5017208;28;20077;-57
2023/04/28 06:19:14;;;;;;;18.58;10.20;;;6.90;99.90;;;;;;5017813;28;20042;-58
2023/04/28 06:21:40;;;;;;;17.42;9.48;;;7.00;99.90;;;;;;5017321;28;20082;-57
2023/04/28 06:24:05;;;;;;;18.10;9.55;;;7.10;99.90;;;;;;4999829;28;20053;-58
2023/04/28 06:26:31;;;;;;;18.67;10.70;;;7.00;99.90;;;;;;5018244;28;20172;-57
2023/04/28 06:28:57;;;;;;;17.02;10.20;;;7.20;99.90;;;;;;5021090;28;20037;-56
2023/04/28 06:31:22;;;;;;;17.67;9.57;;;7.20;99.90;;;;;;5021500;28;20046;-56
2023/04/28 06:33:48;;;;;;;18.80;9.95;;;7.30;99.90;;;;;;5020832;28;20077;-57
2023/04/28 06:36:16;;;;;;;16.88;10.40;;;7.40;99.90;;;;;;5000081;28;20038;-57
2023/04/28 06:38:42;;;;;;;17.25;9.98;;;7.40;99.90;;;;;;5016647;28;20050;-57
2023/04/28 06:41:09;;;;;;;17.83;9.77;;;7.40;99.90;;;;;;5017070;28;20053;-56
2023/04/28 06:43:35;;;;;;;16.40;9.40;;;7.40;99.90;;;;;;5016513;28;20523;-57
2023/04/28 06:46:01;;;;;;;19.75;10.38;;;7.40;99.90;;;;;;5015866;28;20046;-57
2023/04/28 06:48:27;;;;;;;16.02;9.93;;;7.50;99.90;;;;;;5025763;28;20049;-57
2023/04/28 06:50:53;;;;;;;19.40;10.02;;;7.50;99.90;;;;;;4998453;28;20543;-56
2023/04/28 06:53:19;;;;;;;15.23;9.23;;;7.50;99.90;;;;;;4999587;28;20110;-58
2023/04/28 06:55:44;;;;;;;19.45;9.88;;;7.50;99.90;;;;;;5016479;28;20067;-58
2023/04/28 06:58:10;;;;;;;15.32;9.55;;;7.60;99.90;;;;;;5016796;28;20177;-57
2023/04/28 07:00:36;;;;;;;17.02;9.70;;;7.70;99.90;;;;;;5016794;28;20056;-57
2023/04/28 07:03:01;;;;;;;15.57;9.02;;;7.70;99.90;;;;;;5016511;28;20481;-58
2023/04/28 07:05:27;;;;;;;16.50;9.45;;;7.80;99.90;;;;;;5017263;28;20117;-57
2023/04/28 07:07:55;;;;;;;16.80;9.38;;;7.90;99.90;;;;;;5016221;28;20050;-57
2023/04/28 07:10:21;;;;;;;15.02;9.05;;;8.00;99.90;;;;;;5016559;28;20061;-58
2023/04/28 07:12:50;;;;;;;16.75;9.70;;;7.90;99.90;;;;;;5015870;28;20041;-57
2023/04/28 07:15:16;;;;;;;15.30;9.13;;;8.00;99.90;;;;;;5016555;28;20057;-57
2023/04/28 07:17:42;;;;;;;14.82;8.60;;;8.00;99.90;;;;;;5016517;28;20105;-57
2023/04/28 07:20:08;;;;;;;14.98;9.15;;;8.00;99.90;;;;;;5016095;28;20042;-57
2023/04/28 07:22:33;;;;;;;15.65;8.50;;;8.10;99.90;;;;;;5016854;28;20110;-56
2023/04/28 07:25:03;;;;;;;16.58;9.50;;;8.10;99.90;;;;;;5015451;28;20050;-57
2023/04/28 07:27:29;;;;;;;15.57;9.18;;;8.10;99.90;;;;;;5015992;28;20398;-58
2023/04/28 07:29:54;;;;;;;14.45;8.73;;;8.10;99.90;;;;;;5012844;28;20041;-56
2023/04/28 07:32:20;;;;;;;20.05;9.38;;;8.10;99.90;;;;;;5015930;28;20056;-57
2023/04/28 07:34:46;;;;;;;15.18;9.23;;;8.20;99.90;;;;;;5015163;28;20057;-57
2023/04/28 07:37:14;;;;;;;19.05;10.15;;;8.20;99.90;;;;;;5003943;28;20073;-57
2023/04/28 07:39:40;;;;;;;15.32;9.35;;;8.20;99.90;;;;;;5006783;28;20061;-57
2023/04/28 07:42:06;;;;;;;12.95;8.52;;;8.30;99.90;;;;;;5014168;28;20340;-58
2023/04/28 07:44:32;;;;;;;17.52;9.45;;;8.30;99.90;;;;;;5016009;28;20535;-57
2023/04/28 07:47:01;;;;;;;18.23;9.45;;;8.30;99.90;;;;;;5015410;28;20045;-57
2023/04/28 07:49:30;;;;;;;14.88;9.02;;;8.40;99.90;;;;;;5015791;28;20058;-57
2023/04/28 07:51:56;;;;;;;14.60;8.95;;;8.40;99.90;;;;;;5015665;28;20054;-57
2023/04/28 07:54:22;;;;;;;15.43;8.38;;;8.40;99.90;;;;;;5015765;28;20048;-58
2023/04/28 07:56:48;;;;;;;16.02;9.77;;;8.40;99.90;;;;;;5016161;28;20050;-57
2023/04/28 07:59:13;;;;;;;14.95;8.95;;;8.30;99.90;;;;;;5013373;28;20042;-57
2023/04/28 08:01:39;;;;;;;14.25;8.82;;;8.30;99.90;;;;;;5015983;28;20038;-58
2023/04/28 08:04:05;;;;;;;15.95;8.93;;;8.40;99.90;;;;;;5015269;28;20060;-57
2023/04/28 08:06:32;;;;;;;17.75;9.60;;;8.30;99.90;;;;;;5015717;28;20101;-57
2023/04/28 08:08:58;;;;;;;17.83;9.18;;;8.40;99.90;;;;;;5015249;28;20041;-57
2023/04/28 08:11:24;;;;;;;15.52;9.10;;;8.40;99.90;;;;;;5015171;28;20088;-57
2023/04/28 08:13:50;;;;;;;16.35;9.23;;;8.30;99.90;;;;;;5015975;28;20042;-58
2023/04/28 08:16:15;;;;;;;16.33;9.30;;;8.40;99.90;;;;;;5014962;28;20053;-58
2023/04/28 08:18:41;;;;;;;16.95;9.50;;;8.40;99.90;;;;;;5015638;28;20132;-58
2023/04/28 08:21:07;;;;;;;16.05;9.50;;;8.40;99.90;;;;;;5015214;28;20053;-57
2023/04/28 08:23:33;;;;;;;15.05;8.93;;;8.40;99.90;;;;;;5015060;28;20069;-58
2023/04/28 08:25:58;;;;;;;16.83;9.93;;;8.40;99.90;;;;;;5015175;28;20056;-58
2023/04/28 08:28:24;;;;;;;16.08;9.13;;;8.40;99.90;;;;;;5015219;28;20041;-58
2023/04/28 08:30:51;;;;;;;15.38;9.40;;;8.40;99.90;;;;;;4997557;28;20493;-58
2023/04/28 08:33:17;;;;;;;16.50;9.15;;;8.40;99.90;;;;;;5014864;28;20061;-58
2023/04/28 08:35:42;;;;;;;16.25;9.45;;;8.40;99.90;;;;;;5014961;28;20199;-58
2023/04/28 08:38:12;;;;;;;18.10;10.07;;;8.40;99.90;;;;;;5014781;28;20349;-57
2023/04/28 08:40:39;;;;;;;17.92;9.65;;;8.40;99.90;;;;;;5015191;28;20049;-58
2023/04/28 08:43:05;;;;;;;16.30;9.93;;;8.50;99.90;;;;;;5014682;28;20049;-57
2023/04/28 08:45:41;;;;;;;16.92;10.30;;;8.50;99.90;;;;;;5014502;28;20065;-58
2023/04/28 08:48:19;;;;;;;18.52;10.30;;;8.60;99.90;;;;;;5014664;28;20057;-58
2023/04/28 08:50:50;;;;;;;17.17;10.43;;;8.70;99.90;;;;;;4993173;28;20050;-58
2023/04/28 08:53:24;;;;;;;17.63;11.20;;;8.90;99.90;;;;;;5012133;28;20042;-59
2023/04/28 08:55:57;;;;;;;17.98;10.68;;;9.00;99.90;;;;;;5014431;28;20049;-58
2023/04/28 08:58:27;;;;;;;20.25;10.93;;;9.10;99.90;;;;;;5014646;28;20099;-58
2023/04/28 09:00:53;;;;;;;18.25;11.27;;;9.10;99.90;;;;;;5014023;28;20042;-59
2023/04/28 09:03:19;;;;;;;17.15;11.38;;;9.20;99.90;;;;;;5014352;28;20045;-59
2023/04/28 09:05:45;;;;;;;17.15;10.93;;;9.40;99.90;;;;;;5015066;28;20069;-59
2023/04/28 09:08:11;;;;;;;16.92;11.18;;;9.40;99.90;;;;;;5014286;28;20038;-58
2023/04/28 09:10:37;;;;;;;17.88;12.48;;;9.50;99.90;;;;;;5014493;28;20122;-58
2023/04/28 09:13:03;;;;;;;21.88;11.70;;;9.40;99.90;;;;;;5013987;28;20361;-59
2023/04/28 09:15:28;;;;;;;20.52;11.70;;;9.30;99.90;;;;;;5014576;28;20033;-59
2023/04/28 09:17:54;;;;;;;19.13;12.52;;;9.40;99.90;;;;;;5016397;28;20041;-58
2023/04/28 09:20:21;;;;;;;18.80;11.40;;;9.50;99.90;;;;;;5015807;28;20049;-58
2023/04/28 09:22:47;;;;;;;18.05;11.45;;;9.60;99.90;;;;;;5018563;28;20042;-58
2023/04/28 09:25:13;;;;;;;19.33;11.82;;;9.60;99.90;;;;;;5017424;28;20085;-58
2023/04/28 09:27:39;;;;;;;18.15;10.95;;;9.80;99.90;;;;;;5018571;28;20034;-59
2023/04/28 09:30:05;;;;;;;16.02;11.05;;;9.80;99.90;;;;;;5017680;28;20050;-58
2023/04/28 09:32:31;;;;;;;17.65;10.88;;;10.00;99.90;;;;;;5018186;28;20056;-58
2023/04/28 09:34:58;;;;;;;19.10;11.65;;;10.20;99.90;;;;;;5033270;28;20037;-59
2023/04/28 09:37:26;;;;;;;18.98;10.88;;;10.20;99.90;;;;;;5017781;28;20053;-58
2023/04/28 09:39:53;;;;;;;16.95;11.63;;;10.30;99.90;;;;;;5017892;28;20041;-58
2023/04/28 09:42:42;;;;;;;17.10;11.23;;;10.40;99.90;;;;;;5017679;28;20053;-58
2023/04/28 09:45:10;;;;;;;16.70;11.40;;;10.70;99.90;;;;;;5012664;28;20061;-58
2023/04/28 09:47:41;;;;;;;16.92;10.90;;;10.60;99.90;;;;;;5018025;28;20093;-58
2023/04/28 09:50:11;;;;;;;17.23;10.68;;;10.90;99.90;;;;;;4999741;28;20053;-58
2023/04/28 09:52:37;;;;;;;16.40;10.13;;;11.10;99.90;;;;;;5018475;28;20512;-58
2023/04/28 09:55:05;;;;;;;17.20;11.52;;;11.20;99.90;;;;;;5017436;28;20053;-58
2023/04/28 09:57:32;;;;;;;16.98;10.48;;;11.30;99.90;;;;;;5018155;28;20041;-57
2023/04/28 09:59:59;;;;;;;17.20;12.20;;;11.30;99.90;;;;;;5017387;28;20053;-58
2023/04/28 10:02:26;;;;;;;17.25;10.43;;;11.30;99.90;;;;;;5002304;28;20042;-58
2023/04/28 10:04:51;;;;;;;16.88;11.45;;;11.50;99.90;;;;;;5003992;28;20046;-58
2023/04/28 10:07:19;;;;;;;15.05;10.57;;;11.60;99.90;;;;;;5021296;28;20056;-58
2023/04/28 10:09:49;;;;;;;16.70;10.85;;;11.60;99.90;;;;;;5021163;28;20049;-59
2023/04/28 10:12:21;;;;;;;15.02;10.43;;;11.20;99.90;;;;;;5020145;28;20053;-58
2023/04/28 10:14:55;;;;;;;15.65;10.13;;;11.30;99.90;;;;;;5021110;28;20057;-58
2023/04/28 10:17:21;;;;;;;15.45;10.63;;;11.30;99.90;;;;;;5020211;28;20069;-57
2023/04/28 10:19:51;;;;;;;15.80;10.57;;;11.30;99.90;;;;;;5010355;28;20042;-58
2023/04/28 10:22:35;;;;;;;17.40;11.15;;;11.40;99.90;;;;;;5011311;28;20077;-57
2023/04/28 10:25:10;;;;;;;15.05;10.18;;;11.40;99.90;;;;;;5011166;28;20076;-58
2023/04/28 10:27:39;;;;;;;15.65;10.85;;;11.60;99.90;;;;;;5006364;28;20049;-59
2023/04/28 10:30:12;;;;;;;19.30;12.15;;;11.70;99.90;;;;;;5012009;28;20041;-58
2023/04/28 10:32:38;;;;;;;18.63;11.50;;;11.80;99.90;;;;;;5009792;28;20057;-58
2023/04/28 10:35:26;;;;;;;15.63;10.13;;;11.70;99.90;;;;;;4998430;28;20485;-58
2023/04/28 10:38:07;;;;;;;15.13;10.80;;;11.70;99.90;;;;;;5010236;28;20133;-59
2023/04/28 10:40:40;;;;;;;17.13;11.07;;;11.70;99.90;;;;;;5011862;28;20667;-59
2023/04/28 10:43:08;;;;;;;15.00;10.82;;;11.60;99.90;;;;;;5011728;28;20050;-59
2023/04/28 10:45:52;;;;;;;17.10;11.45;;;11.50;99.90;;;;;;5011164;28;20046;-59
2023/04/28 10:48:22;;;;;;;17.05;11.70;;;11.60;99.90;;;;;;5011370;28;20053;-58
2023/04/28 10:51:08;;;;;;;17.88;12.02;;;11.40;99.90;;;;;;5015814;28;20083;-59
2023/04/28 10:53:45;;;;;;;18.67;12.40;;;11.40;99.90;;;;;;5011752;28;20045;-59
2023/04/28 10:56:18;;;;;;;18.83;11.77;;;11.30;99.90;;;;;;5016429;28;20042;-59
2023/04/28 10:58:45;;;;;;;17.15;11.98;;;11.30;99.90;;;;;;5015303;28;20112;-59
2023/04/28 11:01:34;;;;;;;19.90;12.75;;;11.30;99.90;;;;;;5017095;28;20049;-59
2023/04/28 11:04:11;;;;;;;18.83;12.63;;;11.30;99.90;;;;;;5018474;28;20128;-58
2023/04/28 11:06:39;;;;;;;18.20;13.43;;;11.30;99.90;;;;;;5019414;28;20046;-59
2023/04/28 11:09:11;;;;;;;19.13;12.93;;;11.20;99.90;;;;;;5020160;28;20038;-58
2023/04/28 11:11:38;;;;;;;19.25;12.55;;;11.10;99.90;;;;;;5019951;28;20461;-58
2023/04/28 11:14:17;;;;;;;19.30;13.07;;;11.20;99.90;;;;;;5020686;28;20041;-59
2023/04/28 11:16:49;;;;;;;20.58;12.50;;;11.10;99.90;;;;;;5019574;28;20049;-59
2023/04/28 11:19:29;;;;;;;19.05;12.68;;;11.20;99.90;;;;;;5020259;28;20042;-58
2023/04/28 11:21:56;;;;;;;19.35;13.70;;;11.30;99.90;;;;;;5020078;28;20117;-59
2023/04/28 11:24:27;;;;;;;17.83;12.65;;;11.40;99.90;;;;;;5019994;28;20034;-58
2023/04/28 11:26:53;;;;;;;19.30;13.80;;;11.50;99.90;;;;;;5020513;28;20061;-58
2023/04/28 11:29:34;;;;;;;22.48;13.68;;;11.50;99.90;;;;;;5019615;28;20042;-59
2023/04/28 11:32:01;;;;;;;20.13;14.05;;;11.60;99.90;;;;;;5020248;28;20061;-58
2023/04/28 11:34:27;;;;;;;19.20;14.02;;;11.60;99.90;;;;;;5019552;28;20038;-59
2023/04/28 11:36:53;;;;;;;21.17;13.10;;;11.70;99.90;;;;;;5019174;28;20171;-59
2023/04/28 11:39:34;;;;;;;21.27;14.50;;;11.50;99.90;;;;;;5019559;28;20097;-58
2023/04/28 11:42:02;;;;;;;18.67;14.10;;;11.50;99.90;;;;;;5019366;28;20121;-59
2023/04/28 11:44:29;;;;;;;21.60;14.75;;;11.60;99.90;;;;;;5020072;28;20081;-58
2023/04/28 11:46:59;;;;;;;20.50;14.25;;;11.60;99.90;;;;;;5019120;28;20620;-59
2023/04/28 11:49:29;;;;;;;17.48;13.73;;;11.50;99.90;;;;;;5018759;28;20045;-59
2023/04/28 11:51:58;;;;;;;21.55;13.85;;;11.40;99.90;;;;;;5019258;28;20054;-59
2023/04/28 11:54:26;;;;;;;20.77;14.73;;;11.40;99.90;;;;;;5019165;28;20046;-59
2023/04/28 11:56:54;;;;;;;19.48;12.90;;;11.40;99.90;;;;;;5019114;28;20056;-59
2023/04/28 11:59:34;;;;;;;20.80;13.18;;;11.30;99.90;;;;;;5017794;28;20046;-58
2023/04/28 12:02:01;;;;;;;19.25;14.57;;;11.30;99.90;;;;;;5018046;28;20061;-59
2023/04/28 12:04:38;;;;;;;18.80;13.10;;;11.20;99.90;;;;;;5015786;28;20042;-58
2023/04/28 12:07:05;;;;;;;20.73;13.48;;;11.20;99.90;;;;;;5018889;28;20095;-59
2023/04/28 12:09:32;;;;;;;18.13;12.65;;;11.20;99.90;;;;;;5019117;28;20425;-59
2023/04/28 12:12:03;;;;;;;20.05;14.00;;;11.20;99.90;;;;;;5018026;28;20074;-61
2023/04/28 12:14:33;;;;;;;17.83;13.18;;;11.20;99.90;;;;;;5019326;28;20084;-59
2023/04/28 12:16:58;;;;;;;20.25;14.10;;;11.30;99.90;;;;;;5018406;28;20057;-59
2023/04/28 12:19:24;;;;;;;21.40;15.15;;;11.20;99.90;;;;;;5019330;28;20042;-59
2023/04/28 12:22:06;;;;;;;21.48;14.93;;;11.10;99.90;;;;;;5019002;28;20060;-59
2023/04/28 12:24:34;;;;;;;25.10;16.80;;;11.10;99.90;;;;;;5018232;28;20099;-59
2023/04/28 12:27:23;;;;;;;24.77;16.15;;;11.20;99.90;;;;;;5019169;28;20050;-59
2023/04/28 12:29:50;;;;;;;24.65;17.08;;;11.30;99.90;;;;;;5018596;28;20078;-59
2023/04/28 12:32:17;;;;;;;23.60;16.73;;;11.20;99.90;;;;;;5001011;28;20445;-59
2023/04/28 12:34:45;;;;;;;23.77;17.00;;;11.30;99.90;;;;;;5018420;28;20056;-59
2023/04/28 12:37:11;;;;;;;23.42;17.27;;;11.50;99.90;;;;;;5017548;28;20071;-59
2023/04/28 12:39:40;;;;;;;22.63;15.95;;;11.50;99.90;;;;;;5018623;28;20528;-59